Time;durP1;ratioP1;P1;durP2;ratioP2;P2;SDS_P1;SDS_P2;PMS_P1;PMS_P2;Temp;Humidity;BMP_temperature;BMP_pressure;BME280_temperature;BME280_humidity;BME280_pressure;Samples;Min_cycle;Max_cycle;Signal;HPM_P1;HPM_P2
2022/08/07 00:01:09;;;;;;;5.00;4.20;;;26.90;90.20;;;;;;6158655;23;20457;-93
2022/08/07 00:03:35;;;;;;;3.57;3.27;;;26.90;90.20;;;;;;6159914;23;20369;-92
2022/08/07 00:06:01;;;;;;;3.73;3.43;;;26.80;90.20;;;;;;6146228;23;20207;-93
2022/08/07 00:08:27;;;;;;;5.20;3.50;;;26.80;90.30;;;;;;6163208;23;20484;-92
2022/08/07 00:10:53;;;;;;;5.63;4.00;;;26.70;90.30;;;;;;6159054;23;20512;-91
2022/08/07 00:13:20;;;;;;;4.57;3.60;;;26.70;90.40;;;;;;6157667;23;20175;-92
2022/08/07 00:15:47;;;;;;;3.90;2.90;;;26.60;90.50;;;;;;6157433;23;20218;-93
2022/08/07 00:18:17;;;;;;;3.50;3.00;;;26.60;90.60;;;;;;6157320;23;20396;-92
2022/08/07 00:20:43;;;;;;;4.77;3.40;;;26.60;90.60;;;;;;6157506;23;20421;-93
2022/08/07 00:23:09;;;;;;;4.03;3.07;;;26.50;90.70;;;;;;6157971;23;20516;-91
2022/08/07 00:25:35;;;;;;;4.17;3.77;;;26.50;90.70;;;;;;6159055;23;20210;-92
2022/08/07 00:28:01;;;;;;;3.23;2.93;;;26.50;90.80;;;;;;6157974;23;20238;-93
2022/08/07 00:30:28;;;;;;;3.67;3.37;;;26.40;90.90;;;;;;6158836;23;20851;-93
2022/08/07 00:32:57;;;;;;;3.63;3.33;;;26.40;90.90;;;;;;6157754;23;20428;-94
2022/08/07 00:35:23;;;;;;;4.10;3.70;;;26.40;90.90;;;;;;6157875;23;20413;-92
2022/08/07 00:37:49;;;;;;;7.10;3.57;;;26.40;91.00;;;;;;6159505;23;20369;-92
2022/08/07 00:40:15;;;;;;;4.63;3.77;;;26.30;91.00;;;;;;6158657;23;20398;-94
2022/08/07 00:42:40;;;;;;;4.40;3.73;;;26.30;91.10;;;;;;6158517;23;20720;-90
2022/08/07 00:45:09;;;;;;;7.70;3.50;;;26.30;91.10;;;;;;6158938;23;20234;-94
2022/08/07 00:47:35;;;;;;;3.50;3.20;;;26.30;91.20;;;;;;6165037;23;20177;-92
2022/08/07 00:50:00;;;;;;;5.23;3.53;;;26.20;91.20;;;;;;6165928;23;20520;-93
2022/08/07 00:52:26;;;;;;;3.63;3.30;;;26.20;91.30;;;;;;6157445;23;20480;-93
2022/08/07 00:54:52;;;;;;;3.43;3.13;;;26.20;91.40;;;;;;6160032;23;20460;-92
2022/08/07 00:57:19;;;;;;;3.70;3.27;;;26.10;91.50;;;;;;6157909;23;20393;-93
2022/08/07 00:59:44;;;;;;;3.60;3.30;;;26.10;91.60;;;;;;6158474;23;20404;-92
2022/08/07 01:02:11;;;;;;;4.87;3.77;;;26.10;91.60;;;;;;6158062;23;20873;-92
2022/08/07 01:04:37;;;;;;;6.50;3.20;;;26.00;91.60;;;;;;6158548;23;20178;-93
2022/08/07 01:07:04;;;;;;;3.80;3.50;;;26.00;91.70;;;;;;6132846;23;20495;-92
2022/08/07 01:09:30;;;;;;;4.07;3.00;;;26.00;91.70;;;;;;6132565;23;20971;-91
2022/08/07 01:11:56;;;;;;;3.53;3.23;;;26.00;91.80;;;;;;6133146;23;20474;-91
2022/08/07 01:14:23;;;;;;;3.80;3.37;;;25.90;91.90;;;;;;6132908;23;20397;-93
2022/08/07 01:16:50;;;;;;;3.40;2.83;;;25.90;91.90;;;;;;6167325;23;20146;-93
2022/08/07 01:19:17;;;;;;;3.30;3.07;;;25.90;92.00;;;;;;6133067;23;20404;-91
2022/08/07 01:21:44;;;;;;;4.00;3.60;;;25.90;92.00;;;;;;6132739;23;20395;-93
2022/08/07 01:24:10;;;;;;;3.53;3.23;;;25.90;92.10;;;;;;6157978;23;20369;-91
2022/08/07 01:26:36;;;;;;;3.73;3.40;;;25.80;92.10;;;;;;6132580;23;20403;-94
2022/08/07 01:29:02;;;;;;;6.83;3.83;;;25.80;92.10;;;;;;6157868;23;20799;-94
2022/08/07 01:31:30;;;;;;;3.83;3.40;;;25.80;92.30;;;;;;6158344;23;20396;-91
2022/08/07 01:34:01;;;;;;;4.33;3.37;;;25.80;92.30;;;;;;6158176;23;20377;-91
2022/08/07 01:36:28;;;;;;;3.60;3.30;;;25.80;92.40;;;;;;6159659;23;20396;-91
2022/08/07 01:38:55;;;;;;;4.00;3.63;;;25.80;92.30;;;;;;6157432;23;20409;-91
2022/08/07 01:41:22;;;;;;;3.83;3.53;;;25.80;92.40;;;;;;6108411;23;20467;-94
2022/08/07 01:43:49;;;;;;;4.73;3.70;;;25.80;92.50;;;;;;6159968;23;20368;-93
2022/08/07 01:46:19;;;;;;;3.77;3.13;;;25.80;92.80;;;;;;6159030;23;20467;-91
2022/08/07 01:48:47;;;;;;;3.87;3.50;;;25.80;92.60;;;;;;6166806;23;20424;-91
2022/08/07 01:51:18;;;;;;;3.80;3.50;;;25.80;92.60;;;;;;6158277;23;20503;-91
2022/08/07 01:53:46;;;;;;;3.50;3.20;;;25.80;92.60;;;;;;6132399;23;20895;-91
2022/08/07 01:56:30;;;;;;;3.70;3.40;;;25.80;92.70;;;;;;6133530;23;20452;-91
2022/08/07 01:59:29;;;;;;;5.20;3.40;;;25.70;92.80;;;;;;6134108;23;20443;-93
2022/08/07 02:02:24;;;;;;;3.57;2.97;;;25.80;92.80;;;;;;6153248;23;20409;-93
2022/08/07 02:04:57;;;;;;;3.43;3.13;;;25.70;92.80;;;;;;6122849;23;20418;-93
2022/08/07 02:07:26;;;;;;;3.30;3.00;;;25.70;92.90;;;;;;6133343;23;20760;-92
2022/08/07 02:09:53;;;;;;;3.80;3.50;;;25.70;92.90;;;;;;6133105;23;20440;-94
2022/08/07 02:12:23;;;;;;;3.60;3.30;;;25.70;92.90;;;;;;6157630;23;20400;-91
2022/08/07 02:14:54;;;;;;;2.90;2.70;;;25.60;92.90;;;;;;6133179;23;20405;-92
2022/08/07 02:17:22;;;;;;;3.73;3.43;;;25.60;93.00;;;;;;6160510;23;20413;-93
2022/08/07 02:19:50;;;;;;;3.27;2.97;;;25.60;93.10;;;;;;6137224;23;20427;-92
2022/08/07 02:22:20;;;;;;;3.87;3.47;;;25.60;93.10;;;;;;6147498;23;20389;-93
2022/08/07 02:24:48;;;;;;;3.33;3.10;;;25.60;93.00;;;;;;6144644;23;20496;-93
2022/08/07 02:27:17;;;;;;;2.80;2.60;;;25.50;93.10;;;;;;6158990;23;20392;-93
2022/08/07 02:29:44;;;;;;;3.47;3.17;;;25.50;93.20;;;;;;6131716;23;20455;-91
2022/08/07 02:32:11;;;;;;;3.57;3.27;;;25.50;93.20;;;;;;6132631;23;20861;-91
2022/08/07 02:34:38;;;;;;;2.93;2.73;;;25.40;93.30;;;;;;6132255;23;20486;-92
2022/08/07 02:37:07;;;;;;;3.63;3.33;;;25.40;93.30;;;;;;6156760;23;20404;-92
2022/08/07 02:39:35;;;;;;;4.10;3.30;;;25.40;93.40;;;;;;6132043;23;20409;-94
2022/08/07 02:42:02;;;;;;;3.10;2.83;;;25.40;93.40;;;;;;6132514;23;20474;-94
2022/08/07 02:44:29;;;;;;;3.10;2.90;;;25.40;93.50;;;;;;6132168;23;20413;-91
2022/08/07 02:46:57;;;;;;;4.07;3.10;;;25.30;93.40;;;;;;6158182;23;20379;-94
2022/08/07 02:49:23;;;;;;;3.30;3.00;;;25.30;93.50;;;;;;6131477;23;20525;-93
2022/08/07 02:51:50;;;;;;;3.53;2.87;;;25.30;93.40;;;;;;6132396;23;20407;-93
2022/08/07 02:54:17;;;;;;;3.50;3.20;;;25.30;93.40;;;;;;6159039;23;20395;-92
2022/08/07 02:56:45;;;;;;;4.43;2.93;;;25.20;93.40;;;;;;6162363;23;20388;-93
2022/08/07 02:59:17;;;;;;;3.70;3.07;;;25.20;93.60;;;;;;6169888;23;20376;-94
2022/08/07 03:01:44;;;;;;;3.40;2.93;;;25.20;93.70;;;;;;6158580;23;20382;-94
2022/08/07 03:04:12;;;;;;;3.43;2.83;;;25.10;93.70;;;;;;6156642;23;20383;-91
2022/08/07 03:06:39;;;;;;;2.83;2.50;;;25.10;93.70;;;;;;6158468;23;20424;-92
2022/08/07 03:09:06;;;;;;;3.40;3.10;;;25.00;93.80;;;;;;6157814;23;20427;-92
2022/08/07 03:11:34;;;;;;;3.60;2.40;;;25.00;93.90;;;;;;6132255;23;20860;-95
2022/08/07 03:14:02;;;;;;;2.90;2.30;;;25.00;93.90;;;;;;6157730;23;20466;-94
2022/08/07 03:16:29;;;;;;;2.60;2.40;;;24.90;94.00;;;;;;6132418;23;20402;-93
2022/08/07 03:18:55;;;;;;;9.20;2.60;;;24.90;94.00;;;;;;6133076;23;20396;-93
2022/08/07 03:21:22;;;;;;;3.03;2.80;;;24.80;94.10;;;;;;6133513;23;20407;-93
2022/08/07 03:23:50;;;;;;;2.53;2.30;;;24.80;94.10;;;;;;6134492;23;20415;-91
2022/08/07 03:26:19;;;;;;;2.77;2.47;;;24.80;94.20;;;;;;6163959;23;20583;-93
2022/08/07 03:28:47;;;;;;;2.40;2.17;;;24.80;94.30;;;;;;6159281;23;20427;-92
2022/08/07 03:31:18;;;;;;;4.00;2.53;;;24.80;94.30;;;;;;6158067;23;20442;-91
2022/08/07 03:33:48;;;;;;;2.63;2.43;;;24.80;94.30;;;;;;6131531;23;20380;-91
2022/08/07 03:36:15;;;;;;;2.60;2.33;;;24.70;94.30;;;;;;6132308;23;20415;-93
2022/08/07 03:38:42;;;;;;;2.97;2.70;;;24.70;94.40;;;;;;6156044;23;20705;-93
2022/08/07 03:41:13;;;;;;;3.20;2.10;;;24.70;94.40;;;;;;6131919;23;20473;-93
2022/08/07 03:43:39;;;;;;;2.50;2.30;;;24.70;94.40;;;;;;6157557;23;20447;-91
2022/08/07 03:46:14;;;;;;;2.97;2.40;;;24.70;94.50;;;;;;6157456;23;20410;-92
2022/08/07 03:48:41;;;;;;;5.10;2.13;;;24.70;94.50;;;;;;6132455;23;20497;-91
2022/08/07 03:51:07;;;;;;;3.17;2.10;;;24.70;94.50;;;;;;6131722;23;20418;-94
2022/08/07 03:53:33;;;;;;;3.13;2.67;;;24.70;94.50;;;;;;6159693;23;20464;-92
2022/08/07 03:56:00;;;;;;;2.90;2.20;;;24.70;94.50;;;;;;6159467;23;20794;-92
2022/08/07 03:58:32;;;;;;;2.53;2.33;;;24.70;94.60;;;;;;6160551;23;20186;-93
2022/08/07 04:01:03;;;;;;;2.70;2.50;;;24.80;94.60;;;;;;6134256;23;20722;-91
2022/08/07 04:03:29;;;;;;;11.67;2.70;;;24.80;94.50;;;;;;6134884;23;20395;-94
2022/08/07 04:06:01;;;;;;;3.93;2.37;;;24.80;94.60;;;;;;6152261;23;20505;-94
2022/08/07 04:08:27;;;;;;;2.60;2.40;;;24.70;94.60;;;;;;6159073;23;20494;-92
2022/08/07 04:10:53;;;;;;;3.43;2.10;;;24.70;94.60;;;;;;6158006;23;20424;-91
2022/08/07 04:13:21;;;;;;;3.23;2.40;;;24.70;94.70;;;;;;6159031;23;20384;-91
2022/08/07 04:15:47;;;;;;;2.77;2.47;;;24.70;94.70;;;;;;6158850;23;20424;-92
2022/08/07 04:18:14;;;;;;;2.50;2.23;;;24.70;94.70;;;;;;6157874;23;20458;-91
2022/08/07 04:20:40;;;;;;;2.80;2.60;;;24.70;94.70;;;;;;6156686;23;20419;-92
2022/08/07 04:23:07;;;;;;;2.67;2.47;;;24.70;94.70;;;;;;6159082;23;20385;-93
2022/08/07 04:25:37;;;;;;;2.50;2.30;;;24.70;94.60;;;;;;6157841;23;20455;-92
2022/08/07 04:28:07;;;;;;;3.50;2.43;;;24.70;94.70;;;;;;6157872;23;20375;-93
2022/08/07 04:30:34;;;;;;;2.73;2.53;;;24.70;94.80;;;;;;6158342;23;20446;-91
2022/08/07 04:33:04;;;;;;;3.60;2.57;;;24.70;94.80;;;;;;6157881;23;20419;-93
2022/08/07 04:35:30;;;;;;;2.90;2.60;;;24.60;94.80;;;;;;6160060;23;20407;-92
2022/08/07 04:37:55;;;;;;;5.67;2.57;;;24.60;94.80;;;;;;6160457;23;20392;-91
2022/08/07 04:40:23;;;;;;;2.77;2.57;;;24.60;94.80;;;;;;6161549;23;20255;-93
2022/08/07 04:42:48;;;;;;;3.27;2.97;;;24.60;94.80;;;;;;6176756;23;20157;-93
2022/08/07 04:45:14;;;;;;;2.57;2.37;;;24.60;95.10;;;;;;6157795;23;20442;-92
2022/08/07 04:47:54;;;;;;;4.60;2.37;;;24.60;94.80;;;;;;6157428;23;20184;-92
2022/08/07 04:50:48;;;;;;;2.67;2.47;;;24.70;94.70;;;;;;6158379;23;20212;-93
2022/08/07 04:53:26;;;;;;;2.80;2.17;;;24.70;94.70;;;;;;6157967;23;20399;-93
2022/08/07 04:56:04;;;;;;;3.80;2.37;;;24.70;94.70;;;;;;6157539;23;20422;-92
2022/08/07 04:58:44;;;;;;;2.60;2.40;;;24.70;94.70;;;;;;6157863;23;20921;-93
2022/08/07 05:01:28;;;;;;;2.97;2.67;;;24.70;94.60;;;;;;6159477;23;20776;-92
2022/08/07 05:04:03;;;;;;;2.20;2.10;;;24.70;94.60;;;;;;6159609;23;20372;-92
2022/08/07 05:06:39;;;;;;;2.80;2.43;;;24.70;94.70;;;;;;6161299;23;20442;-93
2022/08/07 05:09:15;;;;;;;3.20;2.60;;;24.60;94.60;;;;;;6162832;23;20420;-94
2022/08/07 05:11:49;;;;;;;2.83;2.53;;;24.60;94.60;;;;;;6158477;23;20395;-95
2022/08/07 05:14:29;;;;;;;2.50;2.30;;;24.70;94.60;;;;;;6158820;23;20721;-92
2022/08/07 05:16:59;;;;;;;3.93;2.60;;;24.70;94.60;;;;;;6157591;23;20727;-94
2022/08/07 05:19:29;;;;;;;4.20;2.80;;;24.70;94.60;;;;;;6157259;23;20412;-93
2022/08/07 05:21:59;;;;;;;2.83;2.20;;;24.70;94.50;;;;;;6158966;23;20387;-92
2022/08/07 05:24:27;;;;;;;3.30;2.40;;;24.80;94.80;;;;;;6158566;23;20388;-91
2022/08/07 05:26:56;;;;;;;3.23;2.40;;;24.80;94.40;;;;;;6157491;23;20400;-93
2022/08/07 05:29:23;;;;;;;2.73;2.53;;;24.80;94.30;;;;;;6157652;23;20510;-93
2022/08/07 05:31:50;;;;;;;2.13;1.93;;;24.80;94.30;;;;;;6157505;23;20874;-94
2022/08/07 05:34:16;;;;;;;2.13;1.93;;;24.90;94.40;;;;;;6157531;23;20400;-94
2022/08/07 05:36:50;;;;;;;3.13;2.30;;;24.90;94.30;;;;;;6158788;23;20383;-93
2022/08/07 05:39:18;;;;;;;2.50;2.30;;;24.90;94.20;;;;;;6158498;23;20395;-95
2022/08/07 05:41:46;;;;;;;3.30;2.07;;;25.00;94.20;;;;;;6156818;23;20393;-95
2022/08/07 05:44:12;;;;;;;2.80;2.60;;;25.00;94.00;;;;;;6154776;23;20383;-93
2022/08/07 05:46:39;;;;;;;3.17;2.37;;;25.10;94.00;;;;;;6155204;23;20384;-92
2022/08/07 05:49:07;;;;;;;4.57;2.73;;;25.10;94.00;;;;;;6160447;23;20424;-94
2022/08/07 05:51:33;;;;;;;3.47;2.43;;;25.10;93.90;;;;;;6154646;23;20604;-95
2022/08/07 05:54:00;;;;;;;3.30;2.27;;;25.10;93.90;;;;;;6155857;23;20560;-92
2022/08/07 05:56:27;;;;;;;4.33;2.60;;;25.20;93.80;;;;;;6156503;23;20550;-96
2022/08/07 05:58:54;;;;;;;2.60;2.20;;;25.20;93.90;;;;;;6157243;23;20427;-92
2022/08/07 06:01:22;;;;;;;5.90;2.23;;;25.30;93.80;;;;;;6156299;23;20416;-93
2022/08/07 06:03:51;;;;;;;2.30;2.07;;;25.30;94.00;;;;;;6155950;23;20385;-95
2022/08/07 06:06:18;;;;;;;4.37;2.30;;;25.30;93.70;;;;;;6160037;23;20811;-93
2022/08/07 06:08:44;;;;;;;10.07;3.10;;;25.40;93.70;;;;;;6133157;23;20490;-93
2022/08/07 06:11:11;;;;;;;2.50;2.30;;;25.40;93.70;;;;;;6159451;23;20420;-95
2022/08/07 06:13:37;;;;;;;8.87;2.93;;;25.40;93.60;;;;;;6133038;23;20842;-95
2022/08/07 06:16:06;;;;;;;3.77;2.70;;;25.50;93.60;;;;;;6132709;23;20534;-92
2022/08/07 06:18:32;;;;;;;2.00;1.90;;;25.50;93.60;;;;;;6157690;23;20229;-93
2022/08/07 06:21:02;;;;;;;7.67;2.10;;;25.50;93.50;;;;;;6133063;23;20432;-93
2022/08/07 06:23:28;;;;;;;4.17;2.17;;;25.50;93.40;;;;;;6166120;23;20384;-93
2022/08/07 06:25:55;;;;;;;3.17;2.23;;;25.50;93.40;;;;;;6141345;23;20420;-95
2022/08/07 06:28:21;;;;;;;3.20;2.17;;;25.60;93.30;;;;;;6162249;23;20707;-93
2022/08/07 06:30:47;;;;;;;4.37;2.07;;;25.60;93.20;;;;;;6131851;23;20435;-93
2022/08/07 06:33:13;;;;;;;6.93;2.13;;;25.70;93.20;;;;;;6131591;23;20689;-95
2022/08/07 06:35:38;;;;;;;4.40;2.17;;;25.80;93.10;;;;;;6134911;23;20187;-95
2022/08/07 06:38:05;;;;;;;6.07;2.37;;;25.80;93.10;;;;;;6132324;23;20185;-93
2022/08/07 06:40:55;;;;;;;2.37;2.17;;;25.80;93.00;;;;;;6157943;23;20181;-93
2022/08/07 06:43:23;;;;;;;3.50;2.30;;;25.80;93.00;;;;;;6157021;23;20385;-96
2022/08/07 06:45:49;;;;;;;2.63;2.43;;;25.80;92.90;;;;;;6156063;23;20903;-95
2022/08/07 06:48:15;;;;;;;2.23;1.77;;;25.80;92.80;;;;;;6157188;23;20376;-95
2022/08/07 06:50:42;;;;;;;4.40;2.27;;;25.80;92.80;;;;;;6131312;23;20428;-95
2022/08/07 06:53:09;;;;;;;2.13;2.00;;;25.80;92.80;;;;;;6159394;23;20151;-92
2022/08/07 06:55:35;;;;;;;3.13;2.40;;;25.90;92.80;;;;;;6157785;23;20412;-91
2022/08/07 06:58:09;;;;;;;2.20;2.00;;;25.90;92.80;;;;;;6165582;23;20461;-92
2022/08/07 07:00:38;;;;;;;2.83;2.30;;;26.00;92.80;;;;;;6131446;23;20428;-91
2022/08/07 07:03:07;;;;;;;6.57;2.47;;;26.00;92.80;;;;;;6156026;23;20395;-92
2022/08/07 07:05:33;;;;;;;3.30;2.70;;;26.00;92.70;;;;;;6140199;23;20448;-91
2022/08/07 07:07:59;;;;;;;2.70;1.73;;;26.10;92.80;;;;;;6156744;23;20391;-91
2022/08/07 07:10:32;;;;;;;4.23;2.60;;;26.10;92.50;;;;;;6156687;23;20202;-92
2022/08/07 07:13:13;;;;;;;3.63;2.00;;;26.10;92.50;;;;;;6157093;23;20162;-94
2022/08/07 07:15:44;;;;;;;2.40;2.20;;;26.10;92.60;;;;;;6156730;23;20421;-93
2022/08/07 07:18:18;;;;;;;2.27;2.07;;;26.10;92.60;;;;;;6157634;23;20384;-92
2022/08/07 07:21:00;;;;;;;2.43;2.23;;;26.10;92.70;;;;;;6156618;23;20919;-93
2022/08/07 07:23:28;;;;;;;10.73;2.20;;;26.10;92.70;;;;;;6156901;23;20464;-93
2022/08/07 07:26:01;;;;;;;2.23;2.00;;;26.10;92.80;;;;;;6157716;23;20487;-92
2022/08/07 07:28:34;;;;;;;3.00;2.60;;;26.20;92.80;;;;;;6157384;23;20381;-92
2022/08/07 07:31:04;;;;;;;3.77;2.20;;;26.20;92.80;;;;;;6158567;23;20760;-93
2022/08/07 07:33:32;;;;;;;2.63;1.83;;;26.20;92.80;;;;;;6163402;23;20366;-90
2022/08/07 07:35:59;;;;;;;6.00;2.60;;;26.20;92.90;;;;;;6163836;23;20408;-91
2022/08/07 07:38:25;;;;;;;3.70;2.27;;;26.20;93.10;;;;;;6157778;23;20413;-94
2022/08/07 07:40:56;;;;;;;2.10;2.00;;;26.30;92.70;;;;;;6157889;23;20929;-92
2022/08/07 07:43:22;;;;;;;4.83;2.27;;;26.30;92.50;;;;;;6158218;23;20612;-93
2022/08/07 07:45:49;;;;;;;3.77;2.30;;;26.30;92.40;;;;;;6158267;23;20894;-94
2022/08/07 07:48:20;;;;;;;3.43;3.13;;;26.20;92.40;;;;;;6159244;23;20376;-91
2022/08/07 07:50:51;;;;;;;3.67;2.50;;;26.20;92.40;;;;;;6158260;23;20961;-94
2022/08/07 07:53:19;;;;;;;3.53;3.23;;;26.20;92.50;;;;;;6159196;23;20382;-93
2022/08/07 07:55:45;;;;;;;3.60;2.53;;;26.20;92.50;;;;;;6158280;23;20413;-93
2022/08/07 07:58:12;;;;;;;3.97;3.23;;;26.20;92.90;;;;;;6160176;23;20393;-91
2022/08/07 08:00:38;;;;;;;1.83;1.70;;;26.20;92.60;;;;;;6159241;23;20645;-91
2022/08/07 08:03:09;;;;;;;4.03;2.63;;;26.20;92.60;;;;;;6158678;23;20377;-92
2022/08/07 08:05:42;;;;;;;3.13;2.50;;;26.30;92.60;;;;;;6158411;23;20448;-92
2022/08/07 08:08:09;;;;;;;4.20;2.63;;;26.40;92.70;;;;;;6159530;23;20400;-94
2022/08/07 08:10:36;;;;;;;4.77;3.40;;;26.40;92.60;;;;;;6163313;23;20455;-93
2022/08/07 08:13:02;;;;;;;3.40;2.90;;;26.50;92.50;;;;;;6168935;23;20756;-92
2022/08/07 08:15:32;;;;;;;3.93;2.67;;;26.50;92.40;;;;;;6157525;23;20740;-93
2022/08/07 08:17:59;;;;;;;2.43;2.20;;;26.50;92.40;;;;;;6158969;23;20356;-92
2022/08/07 08:20:27;;;;;;;5.20;2.13;;;26.60;92.40;;;;;;6158106;23;20421;-93
2022/08/07 08:28:27;;;;;;;2.10;1.80;;;26.90;92.30;;;;;;6164691;23;20377;-91
2022/08/07 08:30:57;;;;;;;3.10;1.90;;;27.00;92.10;;;;;;6161069;23;20726;-91
2022/08/07 08:33:33;;;;;;;2.83;2.63;;;27.10;91.80;;;;;;6158100;23;20851;-91
2022/08/07 08:36:01;;;;;;;2.60;2.40;;;27.10;91.70;;;;;;6159381;23;20411;-91
2022/08/07 08:38:42;;;;;;;3.60;2.13;;;27.20;91.70;;;;;;6158995;23;20405;-93
2022/08/07 08:41:23;;;;;;;3.10;1.93;;;27.20;91.50;;;;;;6164959;23;20416;-93
2022/08/07 08:44:38;;;;;;;2.17;1.97;;;27.20;91.40;;;;;;6160277;23;20370;-91
2022/08/07 08:47:12;;;;;;;6.17;1.83;;;27.30;91.40;;;;;;6081004;23;20494;-93
2022/08/07 08:50:02;;;;;;;2.37;2.17;;;27.30;91.30;;;;;;6157123;23;20471;-92
2022/08/07 08:52:36;;;;;;;4.67;2.20;;;27.30;91.40;;;;;;6157237;23;20427;-92
2022/08/07 08:55:05;;;;;;;4.43;2.00;;;27.40;91.40;;;;;;6158618;23;20862;-92
2022/08/07 08:57:41;;;;;;;5.30;2.60;;;27.40;91.30;;;;;;6159534;23;20389;-92
2022/08/07 09:00:08;;;;;;;3.90;2.30;;;27.50;91.10;;;;;;6159709;23;20384;-93
2022/08/07 09:02:50;;;;;;;2.80;2.13;;;27.60;90.90;;;;;;6159102;23;20392;-92
2022/08/07 09:05:37;;;;;;;2.23;2.03;;;27.60;90.90;;;;;;6159054;23;20504;-92
2022/08/07 09:08:26;;;;;;;4.60;1.80;;;27.70;91.00;;;;;;6158548;23;20400;-93
2022/08/07 09:10:59;;;;;;;2.00;1.90;;;27.80;90.90;;;;;;6158604;23;20488;-93
2022/08/07 09:13:50;;;;;;;2.33;1.40;;;27.90;90.70;;;;;;6158651;23;20393;-91
2022/08/07 09:16:22;;;;;;;2.07;1.77;;;28.00;90.60;;;;;;6166201;23;20483;-93
2022/08/07 09:18:54;;;;;;;4.93;2.00;;;28.00;90.40;;;;;;6158655;23;20421;-93
2022/08/07 09:21:46;;;;;;;2.20;1.70;;;28.00;90.40;;;;;;6160578;23;20820;-93
2022/08/07 09:24:24;;;;;;;2.27;2.07;;;28.00;90.40;;;;;;6158343;23;20403;-93
2022/08/07 09:27:31;;;;;;;2.13;2.00;;;28.10;90.40;;;;;;6157864;23;20409;-92
2022/08/07 09:30:04;;;;;;;2.53;2.33;;;28.10;90.40;;;;;;6045172;23;20507;-93
2022/08/07 09:33:03;;;;;;;2.50;1.80;;;28.20;90.40;;;;;;6145789;23;20919;-94
2022/08/07 09:35:43;;;;;;;2.30;2.10;;;28.20;90.40;;;;;;6157365;23;20421;-92
2022/08/07 09:38:18;;;;;;;5.67;2.83;;;28.30;90.30;;;;;;6157452;23;20386;-92
2022/08/07 09:41:04;;;;;;;2.53;1.90;;;28.30;90.10;;;;;;6159031;23;20408;-94
2022/08/07 09:43:37;;;;;;;3.80;1.90;;;28.40;90.10;;;;;;6161893;23;20377;-91
2022/08/07 09:46:24;;;;;;;3.60;2.20;;;28.50;90.10;;;;;;6164852;23;20440;-92
2022/08/07 09:49:08;;;;;;;2.83;1.87;;;28.50;90.10;;;;;;6156934;23;20442;-93
2022/08/07 09:52:03;;;;;;;2.67;1.93;;;28.50;90.00;;;;;;6160549;23;20480;-93
2022/08/07 09:54:34;;;;;;;2.47;2.27;;;28.50;90.00;;;;;;6156986;23;20413;-92
2022/08/07 09:57:24;;;;;;;3.70;1.90;;;28.60;90.10;;;;;;6157848;23;20409;-93
2022/08/07 10:00:10;;;;;;;2.40;2.13;;;28.60;90.10;;;;;;6157941;23;20930;-91
2022/08/07 10:02:42;;;;;;;2.70;2.50;;;28.60;90.10;;;;;;6160672;23;20381;-91
2022/08/07 10:05:10;;;;;;;2.93;1.80;;;28.60;90.10;;;;;;6157758;23;20446;-93
2022/08/07 10:07:52;;;;;;;3.70;2.30;;;28.70;90.00;;;;;;6160051;23;20707;-92
2022/08/07 10:10:38;;;;;;;5.93;2.27;;;28.70;90.10;;;;;;6157792;23;20448;-92
2022/08/07 10:13:38;;;;;;;3.97;3.03;;;28.80;90.10;;;;;;6157213;23;20406;-92
2022/08/07 10:16:33;;;;;;;3.83;2.63;;;28.80;89.80;;;;;;6157456;23;20420;-92
2022/08/07 10:19:27;;;;;;;3.00;2.67;;;28.90;89.80;;;;;;6159487;23;20393;-93
2022/08/07 10:22:02;;;;;;;2.50;2.23;;;28.90;89.50;;;;;;6168428;23;20389;-93
2022/08/07 10:24:45;;;;;;;3.60;3.00;;;29.00;89.20;;;;;;6157049;23;20404;-93
2022/08/07 10:27:38;;;;;;;3.90;2.77;;;29.10;89.50;;;;;;6156953;23;20461;-91
2022/08/07 10:30:29;;;;;;;3.90;2.77;;;29.10;89.20;;;;;;6156440;23;20450;-92
2022/08/07 10:33:19;;;;;;;2.37;2.17;;;29.20;89.00;;;;;;6123878;23;20437;-92
2022/08/07 10:35:59;;;;;;;5.43;2.13;;;29.20;89.30;;;;;;6158163;23;20436;-93
2022/08/07 10:38:37;;;;;;;2.60;2.40;;;29.20;89.00;;;;;;6157220;23;20453;-93
2022/08/07 10:41:29;;;;;;;2.60;2.40;;;29.20;89.40;;;;;;6158634;23;20802;-90
2022/08/07 10:44:20;;;;;;;4.60;2.87;;;29.30;89.00;;;;;;6137797;23;20393;-93
2022/08/07 10:47:21;;;;;;;3.60;3.00;;;29.30;89.10;;;;;;6159601;23;20407;-93
2022/08/07 10:50:03;;;;;;;3.97;3.63;;;29.20;88.90;;;;;;6159052;23;20814;-92
2022/08/07 10:52:48;;;;;;;3.20;2.90;;;29.20;89.10;;;;;;6157235;23;20387;-90
2022/08/07 10:55:21;;;;;;;5.23;2.70;;;29.20;88.30;;;;;;6160024;23;20439;-93
2022/08/07 10:57:56;;;;;;;4.70;3.30;;;29.20;89.00;;;;;;6168309;23;20392;-92
2022/08/07 11:00:26;;;;;;;3.20;2.70;;;29.20;89.00;;;;;;6155184;23;20855;-93
2022/08/07 11:02:59;;;;;;;5.57;2.93;;;29.20;89.10;;;;;;6156866;23;20852;-92
2022/08/07 11:05:48;;;;;;;2.70;2.50;;;29.30;89.00;;;;;;6156725;23;20522;-92
2022/08/07 11:08:32;;;;;;;1.93;1.80;;;29.30;88.80;;;;;;6156825;23;20474;-92
2022/08/07 11:11:14;;;;;;;3.03;2.00;;;29.30;88.00;;;;;;6158615;23;20421;-90
2022/08/07 11:13:52;;;;;;;2.60;2.40;;;29.40;87.70;;;;;;6158663;23;20360;-92
2022/08/07 11:16:30;;;;;;;2.77;2.57;;;29.40;87.70;;;;;;6158289;23;20430;-90
2022/08/07 11:19:05;;;;;;;2.97;2.23;;;29.40;87.80;;;;;;6160756;23;20726;-93
2022/08/07 11:21:44;;;;;;;5.17;2.00;;;29.50;88.20;;;;;;6159703;23;20735;-92
2022/08/07 11:24:22;;;;;;;2.23;1.87;;;29.50;88.00;;;;;;6159413;23;20384;-92
2022/08/07 11:27:19;;;;;;;2.53;1.87;;;29.50;87.80;;;;;;6159834;23;20415;-92
2022/08/07 11:29:56;;;;;;;2.30;2.00;;;29.50;87.80;;;;;;6159458;23;20786;-92
2022/08/07 11:32:45;;;;;;;2.30;2.10;;;29.50;87.50;;;;;;6161973;23;20392;-94
2022/08/07 11:35:18;;;;;;;7.03;2.60;;;29.50;88.10;;;;;;6160742;23;20413;-92
2022/08/07 11:38:05;;;;;;;3.37;2.90;;;29.40;87.70;;;;;;6160429;23;20384;-92
2022/08/07 11:40:47;;;;;;;5.20;2.53;;;29.40;88.10;;;;;;6161269;23;20425;-92
2022/08/07 11:43:29;;;;;;;3.70;2.20;;;29.40;88.50;;;;;;6162289;23;20450;-91
2022/08/07 11:46:10;;;;;;;3.40;2.80;;;29.50;87.90;;;;;;6158355;23;20432;-93
2022/08/07 11:48:56;;;;;;;3.73;2.07;;;29.40;87.60;;;;;;6158400;23;20392;-93
2022/08/07 11:51:42;;;;;;;3.10;2.57;;;29.40;88.00;;;;;;6159633;23;20398;-92
2022/08/07 11:54:26;;;;;;;5.33;2.57;;;29.50;87.50;;;;;;6159382;23;20702;-92
2022/08/07 11:57:19;;;;;;;3.07;2.70;;;29.40;87.90;;;;;;6159274;23;20432;-92
2022/08/07 11:59:54;;;;;;;3.03;2.33;;;29.40;87.70;;;;;;6158576;23;20456;-92
2022/08/07 12:02:31;;;;;;;2.70;1.90;;;29.30;87.30;;;;;;6158881;23;20409;-93
2022/08/07 12:05:25;;;;;;;3.00;2.30;;;29.30;87.50;;;;;;6158833;23;20490;-92
2022/08/07 12:08:04;;;;;;;2.30;2.10;;;29.30;87.10;;;;;;6160807;23;20474;-92
2022/08/07 12:10:43;;;;;;;2.73;2.53;;;29.30;87.50;;;;;;6142533;23;20541;-93
2022/08/07 12:13:45;;;;;;;4.80;2.37;;;29.40;86.60;;;;;;6135734;23;20417;-93
2022/08/07 12:16:16;;;;;;;2.17;1.97;;;29.40;86.70;;;;;;6158266;23;20417;-92
2022/08/07 12:19:12;;;;;;;2.60;2.40;;;29.50;87.30;;;;;;6159803;23;20822;-92
2022/08/07 12:21:49;;;;;;;2.47;2.27;;;29.50;86.60;;;;;;6159280;23;20426;-94
2022/08/07 12:24:21;;;;;;;2.60;2.40;;;29.60;87.10;;;;;;6133359;23;20413;-92
2022/08/07 12:26:57;;;;;;;3.07;2.73;;;29.60;86.70;;;;;;6160109;23;20989;-93
2022/08/07 12:29:35;;;;;;;5.80;2.70;;;29.60;86.30;;;;;;6133338;23;20534;-92
2022/08/07 12:32:06;;;;;;;2.83;2.53;;;29.60;86.50;;;;;;6136650;23;20409;-94
2022/08/07 12:34:35;;;;;;;5.67;2.63;;;29.70;86.40;;;;;;6135801;23;20551;-92
2022/08/07 12:37:02;;;;;;;4.33;2.60;;;29.70;86.30;;;;;;6139912;23;20413;-93
2022/08/07 12:39:31;;;;;;;3.20;2.63;;;29.80;86.50;;;;;;6157421;23;20467;-92
2022/08/07 12:41:59;;;;;;;1.80;1.70;;;29.80;86.10;;;;;;6160160;23;20408;-92
2022/08/07 12:44:28;;;;;;;5.27;2.80;;;29.80;86.00;;;;;;6159886;23;20399;-92
2022/08/07 12:47:12;;;;;;;3.23;2.93;;;29.90;87.00;;;;;;6133620;23;20400;-94
2022/08/07 12:49:44;;;;;;;5.30;2.60;;;29.90;86.60;;;;;;6133382;23;20450;-94
2022/08/07 12:52:14;;;;;;;3.00;2.43;;;30.00;86.00;;;;;;6159683;23;20416;-92
2022/08/07 12:54:51;;;;;;;3.10;2.40;;;30.00;85.70;;;;;;6133125;23;20406;-91
2022/08/07 12:57:22;;;;;;;2.87;2.60;;;30.00;85.70;;;;;;6134521;23;20500;-93
2022/08/07 12:59:50;;;;;;;2.80;2.53;;;29.90;85.80;;;;;;6158545;23;20405;-92
2022/08/07 13:02:41;;;;;;;2.67;2.47;;;30.00;84.80;;;;;;6134115;23;20399;-92
2022/08/07 13:05:34;;;;;;;3.30;2.40;;;30.00;85.60;;;;;;6135049;23;20448;-92
2022/08/07 13:08:24;;;;;;;4.80;2.53;;;30.00;85.60;;;;;;6169075;23;20372;-92
2022/08/07 13:11:02;;;;;;;3.07;2.83;;;30.10;84.90;;;;;;6165506;23;20440;-94
2022/08/07 13:14:05;;;;;;;13.43;3.00;;;30.10;85.10;;;;;;6159851;23;20386;-93
2022/08/07 13:17:21;;;;;;;3.20;2.53;;;30.10;85.70;;;;;;6158972;23;20472;-92
2022/08/07 13:19:51;;;;;;;2.90;2.60;;;30.10;85.30;;;;;;6139360;23;20890;-93
2022/08/07 13:22:29;;;;;;;4.00;2.90;;;30.10;85.30;;;;;;6158468;23;20404;-94